Time;durP1;ratioP1;P1;durP2;ratioP2;P2;SDS_P1;SDS_P2;PMS_P1;PMS_P2;Temp;Humidity;BMP_temperature;BMP_pressure;BME280_temperature;BME280_humidity;BME280_pressure;Samples;Min_cycle;Max_cycle;Signal;HPM_P1;HPM_P2
2022/03/14 00:00:50;;;;;;;;;;;16.00;36.10;;;;;;5035744;28;43661;-79
2022/03/14 00:03:16;;;;;;;;;;;16.00;36.00;;;;;;5034325;28;43079;-79
2022/03/14 00:05:43;;;;;;;;;;;16.00;35.80;;;;;;5034085;28;44261;-79
2022/03/14 00:08:08;;;;;;;;;;;16.10;35.70;;;;;;5035656;28;43373;-79
2022/03/14 00:10:37;;;;;;;;;;;16.00;36.00;;;;;;5033982;28;43065;-77
2022/03/14 00:13:03;;;;;;;;;;;16.00;36.20;;;;;;5034117;28;42964;-78
2022/03/14 00:15:30;;;;;;;;;;;16.00;36.50;;;;;;5035245;28;44459;-79
2022/03/14 00:17:56;;;;;;;;;;;16.00;36.60;;;;;;5034033;28;42827;-79
2022/03/14 00:20:22;;;;;;;;;;;15.90;36.40;;;;;;5033369;28;43517;-78
2022/03/14 00:22:48;;;;;;;;;;;15.90;36.50;;;;;;5035339;28;42993;-78
2022/03/14 00:25:14;;;;;;;;;;;16.40;36.60;;;;;;5033813;28;43533;-78
2022/03/14 00:27:40;;;;;;;;;;;16.00;36.60;;;;;;5034849;28;43053;-77
2022/03/14 00:30:10;;;;;;;;;;;15.90;36.40;;;;;;5035517;28;42971;-79
2022/03/14 00:32:35;;;;;;;;;;;15.90;36.40;;;;;;5031556;28;43203;-78
2022/03/14 00:35:02;;;;;;;;;;;16.00;36.40;;;;;;5034200;28;42898;-79
2022/03/14 00:37:27;;;;;;;;;;;15.90;36.60;;;;;;5035580;28;43181;-78
2022/03/14 00:39:55;;;;;;;;;;;15.90;36.70;;;;;;5033255;28;43581;-78
2022/03/14 00:42:22;;;;;;;;;;;15.90;36.50;;;;;;5034034;28;42969;-78
2022/03/14 00:44:48;;;;;;;;;;;16.00;36.50;;;;;;5041548;28;43081;-80
2022/03/14 00:47:14;;;;;;;;;;;15.90;36.70;;;;;;5045590;28;42931;-79
2022/03/14 00:49:40;;;;;;;;;;;15.90;36.50;;;;;;5045454;28;42898;-80
2022/03/14 00:52:06;;;;;;;;;;;16.00;36.00;;;;;;5045403;28;42896;-79
2022/03/14 00:54:32;;;;;;;;;;;16.00;36.10;;;;;;5045405;28;43792;-79
2022/03/14 00:56:57;;;;;;;;;;;15.90;36.30;;;;;;5045262;28;42954;-79
2022/03/14 00:59:24;;;;;;;;;;;15.80;36.00;;;;;;5044931;28;43047;-80
2022/03/14 01:01:50;;;;;;;;;;;15.90;36.10;;;;;;5044554;28;43100;-78
2022/03/14 01:04:16;;;;;;;;;;;15.90;36.20;;;;;;5044244;28;43434;-79
2022/03/14 01:06:41;;;;;;;;;;;15.90;36.00;;;;;;5045363;28;42970;-79
2022/03/14 01:09:07;;;;;;;;;;;15.90;35.60;;;;;;5045023;28;44078;-79
2022/03/14 01:11:33;;;;;;;;;;;15.90;36.40;;;;;;5045220;28;42911;-78
2022/03/14 01:13:58;;;;;;;;;;;15.90;36.00;;;;;;5044630;28;43898;-78
2022/03/14 01:16:27;;;;;;;;;;;15.90;36.00;;;;;;5045815;28;42860;-78
2022/03/14 01:18:52;;;;;;;;;;;16.20;36.10;;;;;;5045493;28;43886;-79
2022/03/14 01:21:18;;;;;;;;;;;15.90;36.00;;;;;;5044069;28;42997;-78
2022/03/14 01:23:43;;;;;;;;;;;15.80;35.40;;;;;;5045035;28;44119;-78
2022/03/14 01:26:09;;;;;;;;;;;15.90;36.00;;;;;;5045063;28;42908;-78
2022/03/14 01:28:35;;;;;;;;;;;15.90;36.00;;;;;;5044567;28;42955;-79
2022/03/14 01:31:00;;;;;;;;;;;15.90;36.10;;;;;;5045297;28;43200;-78
2022/03/14 01:33:25;;;;;;;;;;;15.90;36.00;;;;;;5045128;28;42837;-79
2022/03/14 01:35:51;;;;;;;;;;;15.90;36.00;;;;;;5045220;28;42863;-77
2022/03/14 01:38:17;;;;;;;;;;;15.90;36.00;;;;;;5045099;28;43465;-78
2022/03/14 01:40:42;;;;;;;;;;;15.90;36.10;;;;;;5045013;28;43237;-78
2022/03/14 01:43:08;;;;;;;;;;;15.90;36.00;;;;;;5044673;28;42836;-78
2022/03/14 01:45:34;;;;;;;;;;;15.90;36.60;;;;;;5044703;28;42905;-78
2022/03/14 01:47:59;;;;;;;;;;;15.90;36.40;;;;;;5044399;28;43681;-78
2022/03/14 01:50:25;;;;;;;;;;;15.90;36.10;;;;;;5044721;28;42967;-78
2022/03/14 01:52:50;;;;;;;;;;;16.00;36.20;;;;;;5044623;28;43264;-77
2022/03/14 01:55:16;;;;;;;;;;;15.90;35.70;;;;;;5044880;28;42939;-78
2022/03/14 01:57:42;;;;;;;;;;;15.90;36.20;;;;;;5044584;28;43097;-78
2022/03/14 02:00:09;;;;;;;;;;;15.90;36.20;;;;;;5043764;28;43110;-78
2022/03/14 02:02:35;;;;;;;;;;;15.90;36.20;;;;;;5014982;28;44398;-80
2022/03/14 02:05:00;;;;;;;;;;;15.90;36.20;;;;;;5003774;28;43222;-80
2022/03/14 02:07:26;;;;;;;;;;;15.90;36.20;;;;;;5004571;28;42968;-80
2022/03/14 02:09:51;;;;;;;;;;;15.90;36.30;;;;;;5004391;28;42932;-80
2022/03/14 02:12:18;;;;;;;;;;;15.90;35.80;;;;;;5003346;28;42917;-80
2022/03/14 02:14:43;;;;;;;;;;;16.00;36.40;;;;;;5022697;28;43060;-79
2022/03/14 02:17:10;;;;;;;;;;;16.00;36.40;;;;;;5022911;28;43646;-79
2022/03/14 02:19:35;;;;;;;;;;;15.90;36.20;;;;;;5023380;28;43136;-79
2022/03/14 02:22:02;;;;;;;;;;;16.00;36.30;;;;;;5022631;28;42849;-79
2022/03/14 02:24:29;;;;;;;;;;;15.90;36.30;;;;;;5022963;28;42935;-80
2022/03/14 02:26:54;;;;;;;;;;;15.90;36.30;;;;;;5023055;28;42950;-80
2022/03/14 02:29:20;;;;;;;;;;;16.00;36.30;;;;;;5023186;28;42938;-79
2022/03/14 02:31:46;;;;;;;;;;;16.00;36.30;;;;;;5024287;28;42995;-79
2022/03/14 02:34:12;;;;;;;;;;;15.90;36.30;;;;;;5023502;28;43036;-79
2022/03/14 02:36:39;;;;;;;;;;;15.90;35.80;;;;;;5023094;28;42966;-80
2022/03/14 02:39:06;;;;;;;;;;;15.90;36.30;;;;;;5023567;28;42912;-79
2022/03/14 02:41:32;;;;;;;;;;;15.90;36.20;;;;;;5022380;28;43047;-79
2022/03/14 02:43:58;;;;;;;;;;;15.90;36.30;;;;;;5030366;28;42834;-79
2022/03/14 02:46:23;;;;;;;;;;;16.00;36.30;;;;;;5046330;28;42914;-79
2022/03/14 02:48:49;;;;;;;;;;;16.00;36.30;;;;;;5047716;28;42888;-79
2022/03/14 02:51:15;;;;;;;;;;;15.90;35.80;;;;;;5046595;28;43900;-79
2022/03/14 02:53:40;;;;;;;;;;;15.90;36.30;;;;;;5046822;28;43132;-79
2022/03/14 02:56:06;;;;;;;;;;;15.90;36.30;;;;;;5045415;28;43162;-79
2022/03/14 02:58:32;;;;;;;;;;;15.90;36.30;;;;;;5046023;28;43042;-79
2022/03/14 03:00:59;;;;;;;;;;;15.90;36.30;;;;;;5046288;28;43619;-79
2022/03/14 03:03:27;;;;;;;;;;;15.90;36.30;;;;;;5046456;28;42998;-79
2022/03/14 03:05:53;;;;;;;;;;;15.90;36.40;;;;;;5045523;28;43150;-78
2022/03/14 03:08:20;;;;;;;;;;;15.90;36.40;;;;;;5046490;28;43029;-79
2022/03/14 03:10:47;;;;;;;;;;;16.00;35.90;;;;;;5045704;28;43104;-79
2022/03/14 03:13:13;;;;;;;;;;;15.90;36.30;;;;;;5045141;28;42822;-79
2022/03/14 03:15:39;;;;;;;;;;;15.90;36.30;;;;;;5046343;28;43480;-79
2022/03/14 03:18:09;;;;;;;;;;;15.90;36.50;;;;;;5046333;28;42951;-79
2022/03/14 03:20:34;;;;;;;;;;;15.90;36.40;;;;;;5046878;28;42840;-79
2022/03/14 03:23:01;;;;;;;;;;;15.90;36.40;;;;;;5046609;28;42972;-79
2022/03/14 03:25:27;;;;;;;;;;;15.90;36.40;;;;;;5046283;28;43678;-79
2022/03/14 03:27:52;;;;;;;;;;;15.90;36.40;;;;;;5046158;28;43018;-79
2022/03/14 03:30:19;;;;;;;;;;;15.90;36.50;;;;;;5047405;28;42811;-79
2022/03/14 03:32:44;;;;;;;;;;;15.90;36.60;;;;;;5045741;28;43150;-78
2022/03/14 03:35:10;;;;;;;;;;;16.00;36.60;;;;;;5046029;28;44090;-78
2022/03/14 03:37:35;;;;;;;;;;;16.00;36.70;;;;;;5044647;28;42996;-79
2022/03/14 03:40:01;;;;;;;;;;;15.90;36.10;;;;;;5045408;28;43966;-79
2022/03/14 03:42:26;;;;;;;;;;;15.90;36.60;;;;;;5046198;28;43238;-79
2022/03/14 03:44:52;;;;;;;;;;;15.90;36.80;;;;;;5045975;28;43438;-79
2022/03/14 03:47:17;;;;;;;;;;;15.80;36.60;;;;;;5045625;28;42872;-79
2022/03/14 03:49:43;;;;;;;;;;;15.90;36.80;;;;;;5045853;28;43538;-79
2022/03/14 03:52:09;;;;;;;;;;;15.90;36.70;;;;;;5045650;28;43207;-80
2022/03/14 03:54:35;;;;;;;;;;;15.90;36.70;;;;;;5044917;28;43756;-79
2022/03/14 03:57:00;;;;;;;;;;;15.90;36.70;;;;;;5045249;28;42996;-79
2022/03/14 03:59:26;;;;;;;;;;;15.90;36.70;;;;;;5045953;28;43024;-79
2022/03/14 04:01:52;;;;;;;;;;;16.00;36.70;;;;;;5045918;28;42985;-79
2022/03/14 04:04:18;;;;;;;;;;;16.00;36.70;;;;;;5044981;28;43022;-79
2022/03/14 04:06:44;;;;;;;;;;;15.90;36.70;;;;;;5045543;28;43025;-79
2022/03/14 04:09:10;;;;;;;;;;;15.90;36.80;;;;;;5045225;28;42998;-79
2022/03/14 04:11:36;;;;;;;;;;;15.90;36.80;;;;;;5044949;28;42844;-79
2022/03/14 04:14:02;;;;;;;;;;;16.00;36.80;;;;;;5044881;28;43392;-78
2022/03/14 04:16:29;;;;;;;;;;;15.90;36.20;;;;;;5039437;28;42999;-79
2022/03/14 04:18:55;;;;;;;;;;;15.90;36.80;;;;;;5045324;28;43623;-78
2022/03/14 04:21:20;;;;;;;;;;;15.90;36.70;;;;;;5045070;28;42970;-79
2022/03/14 04:23:46;;;;;;;;;;;15.90;36.20;;;;;;5045233;28;42990;-79
2022/03/14 04:26:12;;;;;;;;;;;15.90;36.80;;;;;;5044164;28;43318;-79
2022/03/14 04:28:39;;;;;;;;;;;15.90;36.80;;;;;;5043735;28;43746;-79
2022/03/14 04:31:08;;;;;;;;;;;15.90;36.20;;;;;;5045342;28;42758;-78
2022/03/14 04:33:34;;;;;;;;;;;15.90;36.80;;;;;;5044489;28;43040;-78
2022/03/14 04:36:00;;;;;;;;;;;15.90;36.70;;;;;;5045179;28;43050;-79
2022/03/14 04:38:26;;;;;;;;;;;15.90;36.30;;;;;;5044120;28;43020;-79
2022/03/14 04:40:52;;;;;;;;;;;15.90;36.70;;;;;;5032718;28;43037;-79
2022/03/14 04:43:17;;;;;;;;;;;15.90;36.70;;;;;;5025290;28;43507;-78
2022/03/14 04:45:43;;;;;;;;;;;16.00;36.90;;;;;;5024737;28;42881;-78
2022/03/14 04:48:08;;;;;;;;;;;15.90;36.80;;;;;;5024520;28;44381;-78
2022/03/14 04:50:35;;;;;;;;;;;16.00;36.90;;;;;;5024894;28;43196;-78
2022/03/14 04:53:01;;;;;;;;;;;15.90;36.80;;;;;;5024964;28;42940;-79
2022/03/14 04:55:26;;;;;;;;;;;15.90;36.90;;;;;;5022741;28;43096;-78
2022/03/14 04:57:52;;;;;;;;;;;15.90;36.90;;;;;;5025036;28;43543;-80
2022/03/14 05:00:18;;;;;;;;;;;16.00;36.90;;;;;;5026305;28;43054;-79
2022/03/14 05:02:43;;;;;;;;;;;15.90;37.00;;;;;;5044745;28;43982;-79
2022/03/14 05:05:11;;;;;;;;;;;15.90;36.90;;;;;;5044307;28;42985;-77
2022/03/14 05:07:37;;;;;;;;;;;16.00;37.00;;;;;;5043970;28;44454;-80
2022/03/14 05:10:02;;;;;;;;;;;16.00;37.10;;;;;;5043725;28;43099;-78
2022/03/14 05:12:31;;;;;;;;;;;16.00;37.10;;;;;;5044311;28;44678;-79
2022/03/14 05:14:57;;;;;;;;;;;16.00;37.10;;;;;;5026532;28;42813;-80
2022/03/14 05:17:23;;;;;;;;;;;15.90;36.70;;;;;;5033800;28;42936;-79
2022/03/14 05:19:49;;;;;;;;;;;16.00;37.20;;;;;;5035257;28;42993;-79
2022/03/14 05:22:15;;;;;;;;;;;16.00;37.30;;;;;;5034171;28;43441;-79
2022/03/14 05:24:40;;;;;;;;;;;15.90;36.80;;;;;;5032554;28;43042;-80
2022/03/14 05:27:06;;;;;;;;;;;15.90;37.40;;;;;;5033559;28;42962;-79
2022/03/14 05:29:32;;;;;;;;;;;15.90;37.40;;;;;;5031701;28;42872;-79
2022/03/14 05:31:58;;;;;;;;;;;15.90;37.40;;;;;;5034213;28;43100;-80
2022/03/14 05:34:23;;;;;;;;;;;15.90;37.30;;;;;;5032630;28;42821;-79
2022/03/14 05:36:49;;;;;;;;;;;15.90;37.40;;;;;;5024781;28;42746;-78
2022/03/14 05:39:14;;;;;;;;;;;16.00;37.40;;;;;;5019018;28;43172;-78
2022/03/14 05:41:40;;;;;;;;;;;15.90;37.30;;;;;;5022717;28;43535;-79
2022/03/14 05:44:06;;;;;;;;;;;16.00;37.30;;;;;;5024017;28;42991;-80
2022/03/14 05:46:32;;;;;;;;;;;16.00;37.30;;;;;;5031086;28;43457;-80
2022/03/14 05:48:57;;;;;;;;;;;16.00;37.60;;;;;;5033110;28;43226;-79
2022/03/14 05:51:23;;;;;;;;;;;16.00;37.70;;;;;;5032976;28;43248;-79
2022/03/14 05:53:48;;;;;;;;;;;16.00;37.80;;;;;;5031491;28;43113;-79
2022/03/14 05:56:14;;;;;;;;;;;16.00;37.80;;;;;;5034264;28;42953;-81
2022/03/14 05:58:39;;;;;;;;;;;15.60;35.30;;;;;;5034075;28;43078;-79
2022/03/14 06:01:05;;;;;;;;;;;15.10;34.50;;;;;;5034500;28;43086;-80
2022/03/14 06:03:30;;;;;;;;;;;15.10;35.00;;;;;;5036133;28;44335;-79
2022/03/14 06:05:56;;;;;;;;;;;14.90;34.90;;;;;;5039820;28;43735;-80
2022/03/14 06:08:21;;;;;;;;;;;14.90;34.70;;;;;;5035310;28;43054;-80
2022/03/14 06:10:47;;;;;;;;;;;14.80;34.80;;;;;;5026277;28;42950;-82
2022/03/14 06:13:13;;;;;;;;;;;14.80;34.80;;;;;;5024000;28;42968;-79
2022/03/14 06:15:39;;;;;;;;;;;14.70;35.00;;;;;;5022947;28;42888;-80
2022/03/14 06:18:05;;;;;;;;;;;14.70;35.00;;;;;;5024214;28;42912;-79
2022/03/14 06:20:30;;;;;;;;;;;14.80;35.00;;;;;;5027550;28;43778;-80
2022/03/14 06:22:56;;;;;;;;;;;14.70;34.30;;;;;;5026844;28;43203;-80
2022/03/14 06:25:21;;;;;;;;;;;14.80;35.10;;;;;;5027036;28;43027;-80
2022/03/14 06:27:47;;;;;;;;;;;14.70;35.00;;;;;;5027477;28;42989;-80
2022/03/14 06:30:13;;;;;;;;;;;14.60;34.10;;;;;;5026728;28;43721;-79
2022/03/14 06:32:40;;;;;;;;;;;14.60;34.50;;;;;;5026694;28;42916;-79
2022/03/14 06:35:06;;;;;;;;;;;14.60;34.50;;;;;;5026119;28;43796;-79
2022/03/14 06:37:32;;;;;;;;;;;14.60;34.30;;;;;;5026348;28;42954;-80
2022/03/14 06:39:57;;;;;;;;;;;14.60;34.20;;;;;;5026406;28;43527;-80
2022/03/14 06:42:23;;;;;;;;;;;14.50;34.30;;;;;;5026995;28;42962;-81
2022/03/14 06:44:50;;;;;;;;;;;14.50;34.20;;;;;;5021711;28;43050;-76
2022/03/14 06:47:17;;;;;;;;;;;14.60;34.40;;;;;;5027328;28;43047;-78
2022/03/14 06:49:44;;;;;;;;;;;14.70;34.30;;;;;;5026363;28;44445;-78
2022/03/14 06:52:10;;;;;;;;;;;14.70;34.30;;;;;;5027148;28;42926;-78
2022/03/14 06:54:36;;;;;;;;;;;14.70;33.90;;;;;;5027041;28;43010;-78
2022/03/14 06:57:02;;;;;;;;;;;14.70;34.60;;;;;;5026772;28;43058;-78
2022/03/14 06:59:28;;;;;;;;;;;14.70;34.50;;;;;;5026713;28;43490;-78
2022/03/14 07:01:54;;;;;;;;;;;14.70;34.50;;;;;;5027141;28;42868;-78
2022/03/14 07:04:19;;;;;;;;;;;14.70;34.20;;;;;;5026971;28;43752;-78
2022/03/14 07:06:45;;;;;;;;;;;14.60;34.30;;;;;;5026900;28;42910;-78
2022/03/14 07:09:11;;;;;;;;;;;14.70;34.40;;;;;;5026527;28;44155;-78
2022/03/14 07:11:37;;;;;;;;;;;14.70;34.80;;;;;;5026803;28;42980;-78
2022/03/14 07:14:02;;;;;;;;;;;14.70;34.30;;;;;;5026509;28;43015;-78
2022/03/14 07:16:28;;;;;;;;;;;14.70;34.50;;;;;;5026902;28;42958;-77
2022/03/14 07:18:54;;;;;;;;;;;14.70;33.80;;;;;;5025344;28;43762;-79
2022/03/14 07:21:19;;;;;;;;;;;14.70;34.20;;;;;;5027215;28;42978;-77
2022/03/14 07:23:45;;;;;;;;;;;14.80;34.10;;;;;;5026710;28;42824;-77
2022/03/14 07:26:11;;;;;;;;;;;14.70;34.20;;;;;;5026132;28;43716;-77
2022/03/14 07:28:37;;;;;;;;;;;14.70;33.80;;;;;;5026856;28;42888;-78
2022/03/14 07:31:02;;;;;;;;;;;14.70;33.70;;;;;;5026678;28;43048;-78
2022/03/14 07:33:28;;;;;;;;;;;14.70;33.60;;;;;;5026679;28;42996;-79
2022/03/14 07:35:54;;;;;;;;;;;14.70;33.50;;;;;;5026252;28;42888;-78
2022/03/14 07:38:20;;;;;;;;;;;14.70;33.70;;;;;;5026624;28;42774;-77
2022/03/14 07:40:45;;;;;;;;;;;14.80;33.90;;;;;;5026901;28;42965;-78
2022/03/14 07:43:11;;;;;;;;;;;14.80;34.10;;;;;;5026234;28;42866;-77
2022/03/14 07:45:37;;;;;;;;;;;14.80;34.20;;;;;;5025954;28;43126;-78
2022/03/14 07:48:03;;;;;;;;;;;14.80;34.30;;;;;;5026014;28;43567;-78
2022/03/14 07:50:29;;;;;;;;;;;14.70;34.50;;;;;;5026346;28;42919;-78
2022/03/14 07:52:58;;;;;;;;;;;14.80;34.80;;;;;;5026471;28;42828;-78
2022/03/14 07:55:24;;;;;;;;;;;14.80;35.40;;;;;;5026321;28;43005;-78
2022/03/14 07:57:50;;;;;;;;;;;16.70;35.90;;;;;;5026020;28;42888;-78
2022/03/14 08:00:16;;;;;;;;;;;14.80;34.90;;;;;;5026061;28;43119;-78
2022/03/14 08:02:42;;;;;;;;;;;14.80;34.40;;;;;;5025421;28;43828;-77
2022/03/14 08:05:09;;;;;;;;;;;14.80;34.90;;;;;;5025738;28;43012;-77
2022/03/14 08:07:34;;;;;;;;;;;14.80;34.70;;;;;;5025773;28;43743;-78
2022/03/14 08:10:01;;;;;;;;;;;14.80;34.70;;;;;;5025834;28;43013;-78
2022/03/14 08:12:26;;;;;;;;;;;14.80;34.70;;;;;;5025525;28;44614;-78
2022/03/14 08:14:52;;;;;;;;;;;14.80;34.80;;;;;;5025743;28;43026;-78
2022/03/14 08:17:18;;;;;;;;;;;14.80;34.20;;;;;;5025717;28;43274;-78
2022/03/14 08:19:46;;;;;;;;;;;14.80;34.80;;;;;;5026035;28;43519;-77
2022/03/14 08:22:12;;;;;;;;;;;14.80;34.70;;;;;;5025899;28;43650;-77
2022/03/14 08:24:37;;;;;;;;;;;14.90;35.00;;;;;;5024614;28;43502;-77
2022/03/14 08:27:03;;;;;;;;;;;14.90;34.80;;;;;;5025779;28;43692;-78
2022/03/14 08:29:28;;;;;;;;;;;14.90;34.70;;;;;;5025416;28;43240;-78
2022/03/14 08:31:54;;;;;;;;;;;14.90;34.70;;;;;;5025447;28;43495;-77
2022/03/14 08:34:20;;;;;;;;;;;14.80;34.60;;;;;;5025348;28;42856;-78
2022/03/14 08:36:46;;;;;;;;;;;14.90;34.80;;;;;;5025930;28;42960;-78
2022/03/14 08:39:11;;;;;;;;;;;14.90;34.70;;;;;;5024514;28;43197;-78
2022/03/14 08:41:37;;;;;;;;;;;15.00;34.70;;;;;;5024714;28;43345;-77
2022/03/14 08:44:05;;;;;;;;;;;15.00;34.70;;;;;;5025780;28;42891;-77
2022/03/14 08:46:31;;;;;;;;;;;15.00;34.70;;;;;;5025175;28;43503;-78
2022/03/14 08:48:57;;;;;;;;;;;15.10;34.70;;;;;;5024776;28;43065;-78
2022/03/14 08:51:23;;;;;;;;;;;15.10;34.70;;;;;;5025169;28;43006;-78
2022/03/14 08:53:48;;;;;;;;;;;15.10;34.50;;;;;;5024835;28;43159;-78
2022/03/14 08:56:14;;;;;;;;;;;15.10;34.40;;;;;;5024949;28;42921;-78
2022/03/14 08:58:39;;;;;;;;;;;15.10;34.50;;;;;;5025154;28;42990;-78
2022/03/14 09:01:07;;;;;;;;;;;15.10;34.50;;;;;;5025207;28;43040;-78
2022/03/14 09:03:32;;;;;;;;;;;15.10;34.50;;;;;;5025499;28;42910;-77
2022/03/14 09:05:58;;;;;;;;;;;15.10;34.50;;;;;;5025011;28;43961;-77
2022/03/14 09:08:24;;;;;;;;;;;15.20;34.50;;;;;;5025293;28;42868;-78
2022/03/14 09:10:50;;;;;;;;;;;15.20;34.30;;;;;;5025353;28;42907;-77
2022/03/14 09:13:16;;;;;;;;;;;15.20;34.30;;;;;;5025569;28;42858;-78
2022/03/14 09:15:42;;;;;;;;;;;15.50;34.30;;;;;;5024910;28;43280;-77
2022/03/14 09:18:08;;;;;;;;;;;15.20;34.40;;;;;;5024640;28;42853;-78
2022/03/14 09:20:37;;;;;;;;;;;15.20;34.40;;;;;;5024184;28;43683;-78
2022/03/14 09:23:03;;;;;;;;;;;15.20;34.50;;;;;;5024613;28;42979;-78
2022/03/14 09:25:29;;;;;;;;;;;15.20;34.00;;;;;;5023244;28;44534;-78
2022/03/14 09:27:54;;;;;;;;;;;15.20;34.50;;;;;;5023312;28;42924;-78
2022/03/14 09:30:20;;;;;;;;;;;15.20;34.40;;;;;;5024470;28;43394;-78
2022/03/14 09:32:46;;;;;;;;;;;15.20;34.30;;;;;;5024976;28;43007;-77
2022/03/14 09:35:13;;;;;;;;;;;15.20;34.30;;;;;;5024856;28;44282;-77
2022/03/14 09:37:39;;;;;;;;;;;15.20;34.30;;;;;;5024535;28;42987;-78
2022/03/14 09:40:06;;;;;;;;;;;15.20;34.50;;;;;;5024586;28;43367;-77
2022/03/14 09:42:34;;;;;;;;;;;15.20;34.50;;;;;;5024605;28;42896;-78
2022/03/14 09:45:00;;;;;;;;;;;15.20;34.40;;;;;;5023943;28;43405;-77
2022/03/14 09:47:26;;;;;;;;;;;15.20;34.00;;;;;;5024581;28;42927;-77
2022/03/14 09:49:56;;;;;;;;;;;15.20;33.90;;;;;;5024552;28;43018;-77
2022/03/14 09:52:22;;;;;;;;;;;15.30;34.30;;;;;;5025279;28;42956;-77
2022/03/14 09:54:50;;;;;;;;;;;15.20;34.40;;;;;;5028457;28;43487;-78
2022/03/14 09:57:16;;;;;;;;;;;15.20;34.40;;;;;;5028311;28;42869;-77
2022/03/14 09:59:42;;;;;;;;;;;15.20;34.40;;;;;;5028163;28;43527;-78
2022/03/14 10:02:12;;;;;;;;;;;15.30;34.50;;;;;;5028601;28;42928;-78
2022/03/14 10:04:38;;;;;;;;;;;15.20;34.50;;;;;;5028094;28;43594;-77
2022/03/14 10:07:05;;;;;;;;;;;15.30;34.50;;;;;;5028206;28;42988;-78
2022/03/14 10:09:30;;;;;;;;;;;15.30;34.60;;;;;;5027963;28;44038;-77
2022/03/14 10:11:57;;;;;;;;;;;15.30;34.60;;;;;;5027809;28;42832;-77
2022/03/14 10:14:23;;;;;;;;;;;15.30;34.70;;;;;;5027466;28;43672;-78
2022/03/14 10:16:51;;;;;;;;;;;15.30;34.70;;;;;;5027375;28;42943;-78
2022/03/14 10:19:22;;;;;;;;;;;15.40;34.70;;;;;;5027312;28;42941;-78
2022/03/14 10:21:51;;;;;;;;;;;15.30;34.70;;;;;;5028143;28;42772;-77
2022/03/14 10:24:20;;;;;;;;;;;15.30;34.80;;;;;;5027894;28;43555;-78
2022/03/14 10:26:46;;;;;;;;;;;15.30;34.80;;;;;;5028051;28;42934;-77
2022/03/14 10:29:12;;;;;;;;;;;15.30;34.80;;;;;;5027818;28;42758;-77
2022/03/14 10:31:39;;;;;;;;;;;15.30;35.00;;;;;;5027723;28;42993;-78
2022/03/14 10:34:11;;;;;;;;;;;15.80;35.30;;;;;;5027254;28;42982;-77
2022/03/14 10:36:42;;;;;;;;;;;15.30;35.00;;;;;;5026849;28;42930;-78
2022/03/14 10:39:14;;;;;;;;;;;15.30;35.00;;;;;;5027118;28;43038;-76
2022/03/14 10:41:40;;;;;;;;;;;15.30;35.10;;;;;;5027649;28;42955;-77
2022/03/14 10:44:06;;;;;;;;;;;15.30;35.10;;;;;;5027207;28;43181;-78
2022/03/14 10:46:32;;;;;;;;;;;15.40;35.20;;;;;;5026807;28;43142;-78
2022/03/14 10:48:58;;;;;;;;;;;15.40;35.20;;;;;;5027528;28;43341;-78
2022/03/14 10:51:23;;;;;;;;;;;15.40;35.20;;;;;;5027144;28;42916;-77
2022/03/14 10:53:49;;;;;;;;;;;15.40;35.20;;;;;;5027269;28;42853;-77
2022/03/14 10:56:16;;;;;;;;;;;15.40;35.20;;;;;;5026920;28;42766;-79
2022/03/14 10:58:43;;;;;;;;;;;15.30;34.70;;;;;;5026699;28;42982;-78
2022/03/14 11:01:09;;;;;;;;;;;15.40;35.20;;;;;;5026922;28;43237;-78
2022/03/14 11:03:42;;;;;;;;;;;15.30;35.10;;;;;;5041916;28;44408;-78
2022/03/14 11:06:11;;;;;;;;;;;15.40;35.10;;;;;;5026608;28;42890;-77
2022/03/14 11:08:38;;;;;;;;;;;15.40;35.20;;;;;;5027161;28;43591;-78
2022/03/14 11:11:08;;;;;;;;;;;15.40;35.20;;;;;;5027289;28;42943;-77
2022/03/14 11:13:43;;;;;;;;;;;15.30;35.40;;;;;;5026885;28;44335;-78
2022/03/14 11:16:21;;;;;;;;;;;15.40;35.30;;;;;;5027100;28;42853;-78
2022/03/14 11:18:47;;;;;;;;;;;15.40;35.30;;;;;;5026750;28;43519;-77
2022/03/14 11:21:13;;;;;;;;;;;15.40;35.40;;;;;;5027090;28;42900;-77
2022/03/14 11:23:40;;;;;;;;;;;15.40;35.40;;;;;;5026348;28;43858;-78
2022/03/14 11:26:08;;;;;;;;;;;15.40;35.40;;;;;;5026760;28;42765;-77
2022/03/14 11:28:35;;;;;;;;;;;15.40;35.30;;;;;;5027090;28;42868;-78
2022/03/14 11:31:00;;;;;;;;;;;15.40;35.60;;;;;;5026208;28;42945;-78
2022/03/14 11:33:28;;;;;;;;;;;15.20;35.70;;;;;;5026304;28;42892;-77
2022/03/14 11:35:54;;;;;;;;;;;15.30;35.70;;;;;;5027340;28;42748;-77
2022/03/14 11:38:19;;;;;;;;;;;15.30;35.10;;;;;;5026235;28;42899;-78
2022/03/14 11:40:45;;;;;;;;;;;15.40;35.60;;;;;;5026522;28;42803;-78
2022/03/14 11:43:12;;;;;;;;;;;15.30;35.80;;;;;;5026464;28;42995;-77
2022/03/14 11:45:38;;;;;;;;;;;15.30;35.90;;;;;;5025310;28;42801;-78
2022/03/14 11:48:08;;;;;;;;;;;15.30;35.30;;;;;;5026259;28;42993;-76
2022/03/14 11:50:53;;;;;;;;;;;15.40;35.70;;;;;;5026346;28;42972;-78
2022/03/14 11:53:29;;;;;;;;;;;15.50;35.90;;;;;;5014900;28;44048;-76
2022/03/14 11:56:05;;;;;;;;;;;15.40;35.60;;;;;;5026901;28;42944;-75
2022/03/14 11:58:39;;;;;;;;;;;15.40;35.60;;;;;;5026399;28;42907;-78
2022/03/14 12:01:13;;;;;;;;;;;15.30;36.30;;;;;;5026292;28;42927;-78
2022/03/14 12:03:42;;;;;;;;;;;15.30;35.80;;;;;;5025338;28;42916;-78
2022/03/14 12:06:08;;;;;;;;;;;15.30;35.80;;;;;;5026347;28;42902;-77
2022/03/14 12:08:36;;;;;;;;;;;15.20;35.30;;;;;;5024763;28;44541;-78
2022/03/14 12:11:20;;;;;;;;;;;15.40;35.90;;;;;;5026317;28;42974;-78
2022/03/14 12:13:47;;;;;;;;;;;15.30;35.90;;;;;;5041084;28;44595;-78
2022/03/14 12:16:31;;;;;;;;;;;15.40;35.40;;;;;;5022706;28;43216;-78
2022/03/14 12:18:59;;;;;;;;;;;15.50;35.90;;;;;;5021501;28;43062;-79
2022/03/14 12:21:45;;;;;;;;;;;15.40;36.00;;;;;;5025361;28;42948;-78
2022/03/14 12:24:21;;;;;;;;;;;15.20;35.90;;;;;;5024194;28;42914;-78
2022/03/14 12:26:46;;;;;;;;;;;15.30;35.70;;;;;;5021952;28;43016;-79
2022/03/14 12:29:31;;;;;;;;;;;15.30;35.80;;;;;;5025100;28;42951;-80
2022/03/14 12:32:15;;;;;;;;;;;15.50;36.10;;;;;;5022254;28;42860;-81
2022/03/14 12:34:40;;;;;;;;;;;15.40;35.60;;;;;;5022604;28;42975;-80
2022/03/14 12:37:22;;;;;;;;;;;15.50;36.50;;;;;;5024778;28;43007;-80
2022/03/14 12:39:48;;;;;;;;;;;15.40;35.90;;;;;;5022070;28;43052;-78
2022/03/14 12:42:22;;;;;;;;;;;15.20;37.20;;;;;;5024708;28;42903;-78
2022/03/14 12:45:06;;;;;;;;;;;15.10;36.70;;;;;;5025012;28;43187;-78
2022/03/14 12:47:31;;;;;;;;;;;15.10;37.20;;;;;;5029024;28;43070;-76
2022/03/14 12:49:57;;;;;;;;;;;15.30;38.30;;;;;;5032931;28;43230;-79
2022/03/14 12:52:23;;;;;;;;;;;15.30;36.50;;;;;;5027142;28;44512;-79
2022/03/14 12:54:48;;;;;;;;;;;15.40;38.10;;;;;;5025497;28;43149;-79
2022/03/14 12:57:17;;;;;;;;;;;15.30;36.40;;;;;;5035172;28;42919;-79
2022/03/14 12:59:45;;;;;;;;;;;15.60;37.30;;;;;;5035228;28;43488;-79
2022/03/14 13:02:25;;;;;;;;;;;15.50;38.10;;;;;;5033666;28;43029;-79
2022/03/14 13:05:02;;;;;;;;;;;15.40;36.70;;;;;;5024205;28;43186;-79
2022/03/14 13:07:29;;;;;;;;;;;15.40;36.70;;;;;;5033357;28;43253;-80
2022/03/14 13:09:57;;;;;;;;;;;15.50;36.80;;;;;;5031756;28;43799;-79
2022/03/14 13:12:23;;;;;;;;;;;18.30;37.70;;;;;;5033770;28;42951;-79
2022/03/14 13:14:48;;;;;;;;;;;15.40;37.30;;;;;;5035250;28;42906;-78
2022/03/14 13:17:24;;;;;;;;;;;15.40;36.30;;;;;;5033703;28;43130;-79
2022/03/14 13:19:50;;;;;;;;;;;15.50;36.80;;;;;;5033377;28;42873;-79
2022/03/14 13:22:15;;;;;;;;;;;15.50;37.10;;;;;;5034850;28;42906;-79
2022/03/14 13:24:47;;;;;;;;;;;15.60;37.90;;;;;;5033437;28;43944;-80
2022/03/14 13:27:20;;;;;;;;;;;15.60;36.70;;;;;;5030543;28;43137;-80
2022/03/14 13:29:46;;;;;;;;;;;15.40;36.30;;;;;;5034209;28;42957;-77
2022/03/14 13:32:20;;;;;;;;;;;15.10;36.00;;;;;;5031298;28;42925;-78
2022/03/14 13:35:05;;;;;;;;;;;15.50;36.70;;;;;;5032826;28;43136;-80
2022/03/14 13:37:31;;;;;;;;;;;15.50;36.10;;;;;;5031133;28;43155;-80
2022/03/14 13:39:56;;;;;;;;;;;15.60;38.00;;;;;;5033540;28;42937;-79
2022/03/14 13:42:22;;;;;;;;;;;15.50;36.00;;;;;;5033470;28;43216;-79
2022/03/14 13:44:49;;;;;;;;;;;15.50;36.70;;;;;;5030715;28;43259;-80
2022/03/14 13:47:21;;;;;;;;;;;15.50;36.20;;;;;;5033069;28;43129;-80
2022/03/14 13:49:58;;;;;;;;;;;15.50;36.10;;;;;;5004213;28;42937;-80
2022/03/14 13:52:27;;;;;;;;;;;15.50;36.60;;;;;;5003109;28;43093;-80
2022/03/14 13:54:53;;;;;;;;;;;15.50;36.50;;;;;;5012555;28;43122;-80
2022/03/14 13:57:22;;;;;;;;;;;15.60;36.60;;;;;;5022581;28;42952;-80
2022/03/14 13:59:49;;;;;;;;;;;15.60;36.50;;;;;;5024225;28;42975;-80
2022/03/14 14:02:15;;;;;;;;;;;15.60;36.60;;;;;;5023538;28;42932;-80
2022/03/14 14:04:51;;;;;;;;;;;15.60;36.60;;;;;;5023547;28;43033;-80
2022/03/14 14:07:17;;;;;;;;;;;15.60;36.70;;;;;;5023739;28;42889;-81
2022/03/14 14:09:43;;;;;;;;;;;15.50;36.60;;;;;;5023958;28;43501;-80
2022/03/14 14:12:17;;;;;;;;;;;15.60;36.80;;;;;;5028237;28;43022;-80
2022/03/14 14:14:46;;;;;;;;;;;15.60;36.70;;;;;;5031463;28;42915;-80